Overview Statistics Trail Chart Weather Telemetry Raw packets
 

This is the latest recevied weather packets stored in our database for station/object OM5AST-13. If no packets are shown the sender has not sent any weather packets the latest 10 day(s).

<< 1 2 3 4 >>
Time Temp. Humidity Pressure Rain* Wind** Luminosity Snow
1788635035 22.78° C 48% - 0 mm - 0 W/m² -
1788633835 23.33° C 46% - 0 mm - 0 W/m² -
1788632635 23.89° C 44% - 0 mm - 0 W/m² -
1788631449 23.89° C 41% - 0 mm - 0 W/m² -
1788630235 24.44° C 39% - 0 mm - 0 W/m² -
1788629035 25.56° C 37% - 0 mm - 0 W/m² -
1788627835 26.67° C 36% - 0 mm - 0 W/m² -
1788626635 26.67° C 37% - 0 mm - 0 W/m² -
1788625435 27.78° C 40% - 0 mm - 0 W/m² -
1788624235 27.22° C 41% - 0 mm - 0 W/m² -
1788623035 26.67° C 42% - 0 mm - 0 W/m² -
1788621835 25.56° C 44% - 0 mm - 0 W/m² -
1788620635 25° C 46% - 0 mm - 0 W/m² -
1788619435 25° C 49% - 0 mm - 0 W/m² -
1788618235 24.44° C 50% - 0 mm - 0 W/m² -
1788617035 23.89° C 51% - 0 mm - 0 W/m² -
1788615835 24.44° C 51% - 0 mm - 0 W/m² -
1788614635 23.89° C 52% - 0 mm - 0 W/m² -
1788613435 23.33° C 53% - 0 mm - 0 W/m² -
1788612235 23.89° C 51% - 0 mm - 0 W/m² -
1788611035 23.33° C 54% - 0 mm - 0 W/m² -
1788609835 23.33° C 51% - 0 mm - 0 W/m² -
1788608635 22.22° C 53% - 0 mm - 0 W/m² -
1788607435 22.22° C 54% - 0 mm - 0 W/m² -
1788606235 21.67° C 56% - 0 mm - 0 W/m² -

* Rain latest hour (hover to see other rain measurements)
** Current wind speed in m/s (hover to see current wind gust speed)